Flight Track Log - Related Links

Times and Time Zones

All times are in EDT time to prevent confusion due to time zone crossing. See the EJA831 flight status page for this flight to view local times or setup timezone preferences in your user account.

Time Position Orientation Groundspeed Altitude Reporting Facility
EDT Latitude Longitude Course Direction KTS MPH feet Rate Location/Type
Fri 11:46:32 AM 46.3169 -87.4042 188° South 159 183 3,800  Level Minneapolis Center
Fri 11:47:34 AM 46.2428 -87.4194 188° South 253 291 6,600 2,952 Climbing Minneapolis Center
Fri 11:48:36 AM 46.1625 -87.4367 188° South 292 336 9,900 2,613 Climbing Minneapolis Center
Fri 11:49:38 AM 46.0817 -87.4736 198° South 308 354 12,000 1,016 Climbing Minneapolis Center
Fri 11:50:40 AM 45.9889 -87.5278 202° Southwest 351 404 12,000  Level Minneapolis Center
Fri 11:51:42 AM 45.8972 -87.5819 202° Southwest 352 405 12,000  Level Minneapolis Center
Fri 11:52:44 AM 45.7978 -87.6392 202° Southwest 353 406 12,000  Level Minneapolis Center
Fri 11:53:46 AM 45.7064 -87.6944 203° Southwest 351 404 12,000  Level Minneapolis Center
Fri 11:54:48 AM 45.6150 -87.7472 202° Southwest 348 400 12,000  Level Minneapolis Center
Fri 11:55:50 AM 45.5286 -87.7978 202° Southwest 351 404 12,000  Level Minneapolis Center
Fri 11:56:52 AM 45.4408 -87.8483 202° Southwest 344 396 12,000  Level Minneapolis Center
Fri 11:57:55 AM 45.3497 -87.9006 202° Southwest 352 405 12,000  Level Minneapolis Center
Fri 11:58:57 AM 45.2425 -87.9633 202° Southwest 350 403 12,000  Level Minneapolis Center
Fri 11:59:59 AM 45.1517 -88.0150 202° Southwest 352 405 12,000  Level Minneapolis Center
Fri 12:01:01 PM 45.0619 -88.0675 202° Southwest 350 403 12,000  Level Minneapolis Center
Fri 12:02:03 PM 44.9711 -88.1172 201° Southwest 351 404 12,000 -97 Level Minneapolis Center
Fri 12:03:05 PM 44.8803 -88.1681 202° Southwest 352 405 11,800 -1,016 Descending Minneapolis Center
Fri 12:04:07 PM 44.7781 -88.2250 202° Southwest 336 387 9,900 -1,548 Descending Minneapolis Center
Fri 12:05:09 PM 44.7103 -88.2619 201° Southwest 306 352 8,600 -1,452 Descending Minneapolis Center
Fri 12:06:11 PM 44.6244 -88.3083 201° Southwest 285 328 6,900 -1,548 Descending Minneapolis Center
Fri 12:07:13 PM 44.5544 -88.3475 202° Southwest 276 318 5,400 -1,355 Descending Minneapolis Center
Fri 12:08:15 PM 44.4875 -88.3847 202° Southwest 264 304 4,100 -1,161 Descending Minneapolis Center
Fri 12:09:17 PM 44.4233 -88.4225 203° Southwest 257 296 3,000 -532 Descending Minneapolis Center
Fri 12:10:19 PM 44.3664 -88.4506 199° South 230 265 3,000 -484 Level Minneapolis Center
Fri 12:11:21 PM 44.3131 -88.4842 204° Southwest 188 216 2,000 -864 Descending Minneapolis Center
Fri 12:12:24 PM 44.2825 -88.5108 212° Southwest 151 174 1,200 -762 Descending Minneapolis Center

Login

Don't have an account? Register now (free) for customized features, flight alerts, and more!